Time;durP1;ratioP1;P1;durP2;ratioP2;P2;SDS_P1;SDS_P2;PMS_P1;PMS_P2;Temp;Humidity;BMP_temperature;BMP_pressure;BME280_temperature;BME280_humidity;BME280_pressure;Samples;Min_cycle;Max_cycle;Signal;HPM_P1;HPM_P2
2022/12/11 00:01:37;;;;;;;36.42;19.50;;;;;;;9.35;88.40;92999.13;5004983;28;20168;-83
2022/12/11 00:04:03;;;;;;;44.03;20.42;;;;;;;9.91;88.32;93075.47;5023635;28;20041;-83
2022/12/11 00:06:28;;;;;;;40.30;19.50;;;;;;;9.59;87.88;93023.16;5023843;28;20213;-83
2022/12/11 00:08:54;;;;;;;37.58;18.70;;;;;;;10.64;87.55;93191.78;5008808;28;20045;-83
2022/12/11 00:11:21;;;;;;;35.95;18.90;;;;;;;9.90;87.82;93078.44;5004790;28;20041;-83
2022/12/11 00:13:47;;;;;;;42.50;20.60;;;;;;;10.61;88.04;93190.56;5011065;28;20573;-83
2022/12/11 00:16:14;;;;;;;42.17;20.27;;;;;;;10.71;87.37;93152.28;5019804;28;20053;-83
2022/12/11 00:18:40;;;;;;;43.13;20.35;;;;;;;10.12;87.16;93104.63;5019996;28;20520;-83
2022/12/11 00:21:10;;;;;;;42.35;21.20;;;;;;;10.33;87.67;93117.94;5005289;28;20049;-83
2022/12/11 00:23:36;;;;;;;35.70;20.58;;;;;;;9.62;87.30;92990.75;5013169;28;20041;-83
2022/12/11 00:26:10;;;;;;;38.28;20.30;;;;;;;10.27;87.29;93077.63;5002187;28;20057;-83
2022/12/11 00:28:36;;;;;;;38.80;17.83;;;;;;;10.62;86.57;93136.44;5022381;28;20103;-83
2022/12/11 00:31:06;;;;;;;40.90;21.17;;;;;;;10.61;87.34;93153.44;5022990;28;20045;-83
2022/12/11 00:33:32;;;;;;;41.67;21.73;;;;;;;9.73;88.14;93066.06;5004181;28;20073;-83
2022/12/11 00:35:58;;;;;;;43.88;22.13;;;;;;;10.03;88.52;93109.97;5021779;28;20076;-83
2022/12/11 00:38:23;;;;;;;36.58;21.05;;;;;;;9.24;88.07;92962.44;5005493;28;20076;-82
2022/12/11 00:40:49;;;;;;;37.55;20.70;;;;;;;10.21;88.46;93147.00;4989353;28;20049;-82
2022/12/11 00:43:15;;;;;;;34.10;18.25;;;;;;;10.37;88.56;93111.69;5017997;28;20053;-83
2022/12/11 00:45:42;;;;;;;37.72;17.63;;;;;;;9.83;88.18;93081.59;5018414;28;20768;-81
2022/12/11 00:48:08;;;;;;;42.45;18.00;;;;;;;9.91;88.01;93072.03;5015164;28;20044;-81
2022/12/11 00:50:35;;;;;;;34.22;16.83;;;;;;;9.67;88.44;93015.16;5007817;28;20068;-81
2022/12/11 00:53:01;;;;;;;33.35;17.20;;;;;;;9.55;87.90;92985.19;5011810;28;20072;-81
2022/12/11 00:55:29;;;;;;;32.80;16.92;;;;;;;10.29;87.49;93148.84;5016819;28;20089;-82
2022/12/11 00:57:55;;;;;;;37.72;18.55;;;;;;;10.50;87.81;93159.47;5000753;28;20041;-81
2022/12/11 01:00:21;;;;;;;31.25;17.25;;;;;;;10.50;87.86;93147.00;5009844;28;20098;-81
2022/12/11 01:02:48;;;;;;;27.33;17.10;;;;;;;9.94;87.62;93082.75;5018683;28;20410;-81
2022/12/11 01:05:13;;;;;;;32.35;17.25;;;;;;;10.32;88.14;93134.94;5004312;28;20041;-81
2022/12/11 01:07:39;;;;;;;36.85;18.13;;;;;;;9.55;87.57;92962.13;4987189;28;20104;-81
2022/12/11 01:10:23;;;;;;;35.88;19.63;;;;;;;10.06;87.88;93043.13;5038190;28;20094;-81
2022/12/11 01:12:50;;;;;;;34.65;19.02;;;;;;;10.59;87.16;93168.13;4986555;28;20045;-82
2022/12/11 01:15:16;;;;;;;38.45;18.70;;;;;;;10.45;87.60;93165.72;5003778;28;20048;-82
2022/12/11 01:17:41;;;;;;;37.10;18.30;;;;;;;10.11;86.91;93111.03;5022145;28;20037;-81
2022/12/11 01:20:07;;;;;;;41.45;20.85;;;;;;;10.50;87.62;93173.50;5004564;28;20474;-81
2022/12/11 01:22:32;;;;;;;38.15;18.08;;;;;;;10.67;87.61;93154.84;5004949;28;20030;-81
2022/12/11 01:24:58;;;;;;;33.05;18.73;;;;;;;10.70;86.82;93188.63;5022827;28;20314;-81
2022/12/11 01:27:23;;;;;;;37.15;18.73;;;;;;;10.65;87.43;93201.31;4995257;28;20048;-81
2022/12/11 01:29:49;;;;;;;31.58;17.98;;;;;;;10.09;87.43;93107.91;5012786;28;20186;-81
2022/12/11 01:32:15;;;;;;;39.10;20.25;;;;;;;9.87;88.79;93076.41;5021516;28;20041;-81
2022/12/11 01:34:41;;;;;;;35.25;19.23;;;;;;;10.51;89.09;93132.63;5002776;28;20049;-81
2022/12/11 01:37:06;;;;;;;38.83;19.10;;;;;;;9.90;89.30;93047.44;5021076;28;20052;-80
2022/12/11 01:39:32;;;;;;;34.30;11.90;;;;;;;10.43;89.39;93114.91;5018438;28;20033;-80
2022/12/11 01:41:59;;;;;;;28.00;10.57;;;;;;;9.76;89.17;93036.31;5021780;28;20041;-80
2022/12/11 01:44:25;;;;;;;27.13;13.48;;;;;;;10.45;90.24;93131.28;5039951;28;20045;-80
2022/12/11 01:46:51;;;;;;;25.00;13.38;;;;;;;9.93;90.46;93083.84;5040275;28;20051;-81
2022/12/11 01:49:19;;;;;;;33.80;14.70;;;;;;;10.31;90.48;93131.50;5022182;28;20601;-81
2022/12/11 01:51:50;;;;;;;31.88;14.65;;;;;;;10.31;90.73;93136.78;5040224;28;20841;-81
2022/12/11 01:54:18;;;;;;;;;;;;;;;10.52;90.85;93125.47;5016636;28;20041;-81
2022/12/11 01:56:45;;;;;;;25.08;11.15;;;;;;;10.42;90.98;93098.25;5010360;28;19924;-80
2022/12/11 01:59:15;;;;;;;31.60;12.73;;;;;;;9.50;90.97;92959.69;5041413;28;20044;-81
2022/12/11 02:01:46;;;;;;;23.27;12.75;;;;;;;9.72;90.87;93037.25;5043210;28;20126;-81
2022/12/11 02:04:12;;;;;;;23.30;11.07;;;;;;;9.89;91.51;93080.28;5030794;28;20520;-81
2022/12/11 02:06:44;;;;;;;22.83;11.13;;;;;;;10.13;91.44;93103.53;5038131;28;20041;-81
2022/12/11 02:09:13;;;;;;;20.42;10.40;;;;;;;9.65;90.92;93024.53;5044489;28;20053;-81
2022/12/11 02:11:47;;;;;;;8.43;4.30;;;;;;;10.79;88.21;93181.41;5026062;28;20045;-82
2022/12/11 02:14:54;;;;;;;13.93;8.02;;;;;;;10.79;89.48;93128.38;5007391;28;20104;-82
2022/12/11 02:17:38;;;;;;;10.55;4.30;;;;;;;10.87;88.00;93092.28;5006217;28;20045;-81
2022/12/11 02:20:14;;;;;;;10.95;4.60;;;;;;;10.57;87.52;93067.72;5005484;28;20136;-82
2022/12/11 02:23:19;;;;;;;11.02;4.00;;;;;;;11.02;86.80;93115.56;5037301;28;20421;-81
2022/12/11 02:26:13;;;;;;;9.25;5.30;;;;;;;11.05;87.52;93077.78;5006034;28;20303;-81
2022/12/11 02:28:59;;;;;;;9.80;5.07;;;;;;;10.57;87.18;93025.31;5012490;28;20049;-81
2022/12/11 02:31:28;;;;;;;9.93;4.85;;;;;;;11.06;87.63;93079.31;5013491;28;20913;-82
2022/12/11 02:34:06;;;;;;;7.75;3.95;;;;;;;10.61;87.06;93005.00;4998518;28;20496;-82
2022/12/11 02:36:38;;;;;;;6.15;2.15;;;;;;;10.98;83.25;93047.59;5021261;28;20045;-81
2022/12/11 02:39:06;;;;;;;7.15;3.28;;;;;;;11.07;83.87;93054.34;5044511;28;20080;-81
2022/12/11 02:41:32;;;;;;;5.68;2.42;;;;;;;11.33;84.66;93091.22;5024191;28;20044;-81
2022/12/11 02:44:01;;;;;;;6.20;2.50;;;;;;;11.38;85.44;93084.94;5027241;28;20045;-81
2022/12/11 02:46:27;;;;;;;8.38;2.03;;;;;;;11.07;84.92;93008.47;5041294;28;20807;-81
2022/12/11 02:48:55;;;;;;;3.95;2.25;;;;;;;11.39;83.01;93054.63;5044440;28;20044;-81
2022/12/11 02:51:27;;;;;;;9.55;2.67;;;;;;;10.66;82.96;92946.50;5043564;28;20038;-84
2022/12/11 02:53:56;;;;;;;6.65;2.72;;;;;;;10.98;82.99;92997.97;5013508;28;20057;-84
2022/12/11 02:56:28;;;;;;;5.97;3.20;;;;;;;11.48;84.28;93119.03;5021030;28;20061;-85
2022/12/11 02:58:58;;;;;;;6.28;4.05;;;;;;;11.46;84.55;93119.34;5023924;28;20155;-83
2022/12/11 03:01:25;;;;;;;7.70;4.00;;;;;;;10.83;85.21;93019.81;5024041;28;20057;-83
2022/12/11 03:03:52;;;;;;;9.10;3.33;;;;;;;10.92;84.57;93032.97;4988569;28;20046;-83
2022/12/11 03:06:21;;;;;;;9.45;3.20;;;;;;;10.52;84.69;92983.13;4988647;28;20042;-83
2022/12/11 03:08:46;;;;;;;8.02;3.17;;;;;;;11.43;83.88;93100.66;5043950;28;20037;-83
2022/12/11 03:11:12;;;;;;;4.68;2.38;;;;;;;10.95;82.78;93019.06;5041695;28;20054;-83
2022/12/11 03:13:40;;;;;;;7.35;2.78;;;;;;;11.13;82.46;93013.25;5043721;28;20045;-83
2022/12/11 03:16:16;;;;;;;7.78;2.75;;;;;;;10.89;81.78;92972.63;5036493;28;20049;-83
2022/12/11 03:18:57;;;;;;;3.65;2.33;;;;;;;11.70;81.48;93067.41;5015521;28;20044;-83
2022/12/11 03:21:32;;;;;;;4.07;1.92;;;;;;;11.73;80.34;93056.13;5025458;28;20041;-83
2022/12/11 03:24:23;;;;;;;4.63;2.13;;;;;;;11.69;79.10;93061.31;5025556;28;20066;-83
2022/12/11 03:26:55;;;;;;;4.43;1.55;;;;;;;11.18;74.49;92938.75;4988184;28;20060;-83
2022/12/11 03:29:27;;;;;;;1.67;0.82;;;;;;;11.85;73.23;93029.59;5009111;28;20143;-83
2022/12/11 03:31:59;;;;;;;5.75;1.60;;;;;;;11.65;75.69;92996.72;5036223;28;20567;-83
2022/12/11 03:34:31;;;;;;;7.18;1.60;;;;;;;11.46;76.26;92967.28;5014232;28;20462;-83
2022/12/11 03:36:59;;;;;;;8.40;2.10;;;;;;;12.13;77.59;93085.50;5027289;28;20106;-83
2022/12/11 03:39:31;;;;;;;3.60;1.90;;;;;;;11.69;76.41;93018.81;5036940;28;20037;-83
2022/12/11 03:42:00;;;;;;;6.70;1.98;;;;;;;11.77;76.77;93014.53;5020012;28;20056;-83
2022/12/11 03:44:27;;;;;;;4.97;1.90;;;;;;;11.65;77.21;93011.88;5042363;28;20052;-83
2022/12/11 03:46:56;;;;;;;7.68;1.80;;;;;;;11.46;76.63;93002.56;5042025;28;20427;-83
2022/12/11 03:49:28;;;;;;;1.52;1.08;;;;;;;12.33;73.22;93127.88;5025935;28;20048;-83
2022/12/11 03:51:56;;;;;;;3.22;1.83;;;;;;;11.14;74.25;92939.72;5043894;28;20047;-83
2022/12/11 03:54:23;;;;;;;3.40;1.70;;;;;;;12.02;74.70;93071.09;5003441;28;20045;-83
2022/12/11 03:56:52;;;;;;;5.53;1.25;;;;;;;12.36;75.34;93113.13;5023400;28;20052;-83
2022/12/11 03:59:17;;;;;;;4.25;1.30;;;;;;;11.95;72.71;93040.53;5009240;28;20071;-83
2022/12/11 04:01:43;;;;;;;4.15;1.48;;;;;;;11.58;72.61;92983.22;5020653;28;20045;-83
2022/12/11 04:04:08;;;;;;;4.72;1.83;;;;;;;12.47;72.02;93121.44;5024075;28;20071;-84
2022/12/11 04:06:34;;;;;;;3.00;1.88;;;;;;;12.56;73.40;93128.19;5005730;28;20113;-83
2022/12/11 04:08:59;;;;;;;3.17;1.73;;;;;;;12.09;73.73;93048.16;5007376;28;20044;-83
2022/12/11 04:11:33;;;;;;;4.10;2.00;;;;;;;12.83;72.81;93150.63;5033861;28;20041;-83
2022/12/11 04:16:56;;;;;;;4.68;1.38;;;;;;;12.88;73.09;93168.25;5009299;28;20104;-84
2022/12/11 04:24:50;;;;;;;3.40;1.38;;;;;;;12.78;72.23;93121.59;5043751;28;21357;-84
2022/12/11 04:30:02;;;;;;;1.95;1.27;;;;;;;12.78;73.41;93156.19;5037178;28;20063;-84
2022/12/11 04:32:27;;;;;;;5.15;1.20;;;;;;;12.87;71.24;93156.84;5027542;28;20049;-84
2022/12/11 04:34:52;;;;;;;5.65;1.20;;;;;;;12.36;70.88;93076.69;5012431;28;20053;-84
2022/12/11 04:37:18;;;;;;;2.33;0.80;;;;;;;12.63;70.01;93123.06;5022330;28;20940;-83
2022/12/11 04:39:43;;;;;;;2.05;1.05;;;;;;;13.04;69.67;93193.81;5011329;28;20050;-84
2022/12/11 04:42:09;;;;;;;1.38;0.70;;;;;;;12.85;63.61;93108.50;5009024;28;20057;-84
2022/12/11 04:44:34;;;;;;;2.95;1.00;;;;;;;12.27;66.00;93012.28;5046197;28;20075;-84
2022/12/11 04:46:59;;;;;;;1.73;0.95;;;;;;;12.85;66.02;93108.50;5024405;28;20049;-84
2022/12/11 04:49:25;;;;;;;2.22;0.80;;;;;;;13.35;65.98;93193.19;5023717;28;20047;-83
2022/12/11 04:51:50;;;;;;;4.03;1.38;;;;;;;12.63;66.31;93077.88;5009681;28;20056;-83
2022/12/11 04:54:16;;;;;;;4.72;1.23;;;;;;;12.57;66.66;93070.47;5044436;28;20561;-83
2022/12/11 04:56:41;;;;;;;2.30;0.73;;;;;;;12.88;64.14;93112.38;5033570;28;20053;-83
2022/12/11 04:59:07;;;;;;;4.35;0.70;;;;;;;13.75;59.53;93200.34;5019465;28;20052;-84
2022/12/11 05:01:32;;;;;;;4.88;0.52;;;;;;;13.98;57.16;93181.91;5039381;28;20497;-84
2022/12/11 05:03:58;;;;;;;3.45;0.82;;;;;;;13.89;57.36;93158.88;5036552;28;20674;-84
2022/12/11 05:06:24;;;;;;;4.18;0.77;;;;;;;13.94;56.37;93119.78;5037290;28;20091;-84
2022/12/11 05:08:49;;;;;;;1.05;0.50;;;;;;;14.32;56.08;93196.47;5012447;28;20053;-84
2022/12/11 05:11:15;;;;;;;3.65;0.55;;;;;;;14.07;56.95;93138.00;5031558;28;20052;-84
2022/12/11 05:13:41;;;;;;;2.53;1.10;;;;;;;13.44;56.79;93050.03;5044158;28;20045;-84
2022/12/11 05:16:08;;;;;;;3.50;0.75;;;;;;;14.48;57.56;93203.41;5049134;28;20051;-84
2022/12/11 05:18:34;;;;;;;3.85;0.85;;;;;;;13.89;57.24;93107.47;5032143;28;20056;-84
2022/12/11 05:21:02;;;;;;;4.20;1.08;;;;;;;14.41;57.89;93205.13;5013280;28;20057;-84
2022/12/11 05:23:28;;;;;;;6.13;1.08;;;;;;;14.43;57.42;93210.88;5010227;28;20069;-84
2022/12/11 05:26:03;;;;;;;1.65;0.80;;;;;;;13.58;56.97;93084.25;5013539;28;20096;-84
2022/12/11 05:28:30;;;;;;;2.05;0.75;;;;;;;14.63;56.72;93221.28;5029398;28;20037;-84
2022/12/11 05:31:17;;;;;;;3.58;1.20;;;;;;;14.58;57.28;93226.09;5049962;28;20153;-84
2022/12/11 05:33:44;;;;;;;3.65;0.70;;;;;;;14.29;56.47;93165.94;5039995;28;20125;-84
2022/12/11 05:36:17;;;;;;;1.65;0.85;;;;;;;13.91;56.46;93115.91;5015792;28;20753;-84
2022/12/11 05:38:42;;;;;;;2.58;0.82;;;;;;;14.27;57.42;93173.50;5030611;28;20045;-84
2022/12/11 05:41:11;;;;;;;1.20;0.60;;;;;;;14.52;57.02;93216.81;5055312;28;20049;-84
2022/12/11 05:43:36;;;;;;;2.97;0.95;;;;;;;13.72;57.75;93094.50;5021173;28;20075;-84
2022/12/11 05:46:14;;;;;;;3.70;0.70;;;;;;;14.41;57.98;93203.22;5000651;28;20045;-84
2022/12/11 05:48:41;;;;;;;2.10;1.02;;;;;;;14.04;56.37;93136.00;5016408;28;20049;-84
2022/12/11 05:51:07;;;;;;;3.05;0.77;;;;;;;13.91;57.23;93114.00;5017502;28;20053;-84
2022/12/11 05:53:35;;;;;;;4.68;1.10;;;;;;;14.44;57.45;93189.19;5054646;28;20521;-84
2022/12/11 05:56:06;;;;;;;2.47;1.30;;;;;;;13.87;58.06;93126.47;5046784;28;20110;-85
2022/12/11 05:58:32;;;;;;;4.22;0.90;;;;;;;13.87;57.03;93115.81;5021200;28;20052;-84
2022/12/11 06:00:58;;;;;;;3.03;1.00;;;;;;;14.01;58.12;93117.28;5036481;28;20029;-84
2022/12/11 06:03:24;;;;;;;2.03;0.70;;;;;;;13.51;57.47;93050.22;5053752;28;20131;-84
2022/12/11 06:05:50;;;;;;;5.78;1.08;;;;;;;14.49;56.70;93191.63;5036812;28;20924;-84
2022/12/11 06:08:15;;;;;;;1.42;0.70;;;;;;;13.83;56.88;93082.19;5042106;28;20163;-84
2022/12/11 06:10:45;;;;;;;6.63;1.02;;;;;;;12.81;57.17;92923.34;5044938;28;20862;-84
2022/12/11 06:13:12;;;;;;;2.10;1.10;;;;;;;13.97;58.00;93124.41;5037568;28;20048;-85
2022/12/11 06:15:37;;;;;;;5.22;0.80;;;;;;;14.11;55.91;93114.84;5019843;28;20083;-84
2022/12/11 06:18:02;;;;;;;1.63;0.60;;;;;;;14.13;54.14;93106.53;5017254;28;20043;-84
2022/12/11 06:20:33;;;;;;;5.45;1.00;;;;;;;14.21;54.52;93111.69;5037846;28;20107;-84
2022/12/11 06:22:59;;;;;;;2.00;0.80;;;;;;;14.25;55.63;93127.78;5053118;28;20071;-84
2022/12/11 06:25:25;;;;;;;3.08;0.70;;;;;;;14.38;55.37;93176.44;5033848;28;20312;-84
2022/12/11 06:27:50;;;;;;;5.22;0.85;;;;;;;14.25;54.93;93152.53;5017588;28;20045;-84
2022/12/11 06:30:16;;;;;;;2.67;0.85;;;;;;;13.98;55.30;93093.97;5034493;28;20952;-84
2022/12/11 06:32:42;;;;;;;2.20;1.27;;;;;;;14.49;55.07;93162.28;5012343;28;20034;-84
2022/12/11 06:35:08;;;;;;;4.57;1.05;;;;;;;13.88;55.33;93073.97;5001833;28;20088;-85
2022/12/11 06:37:35;;;;;;;7.75;1.52;;;;;;;14.82;55.21;93230.47;5039777;28;20422;-84
2022/12/11 06:40:02;;;;;;;2.92;1.00;;;;;;;14.23;55.23;93132.66;5053878;28;20136;-84
2022/12/11 06:42:31;;;;;;;6.38;1.30;;;;;;;14.67;55.09;93203.47;5037467;28;20160;-84
2022/12/11 06:44:58;;;;;;;2.80;1.52;;;;;;;14.42;56.46;93193.34;5044348;28;20049;-84
2022/12/11 06:47:28;;;;;;;4.30;0.90;;;;;;;13.75;55.79;93075.16;5005607;28;20050;-84
2022/12/11 06:49:54;;;;;;;7.70;1.63;;;;;;;14.24;56.30;93129.66;5024816;28;20753;-84
2022/12/11 06:52:21;;;;;;;5.50;0.77;;;;;;;14.28;56.42;93143.06;5053961;28;20049;-85
2022/12/11 06:54:47;;;;;;;2.20;0.88;;;;;;;14.69;56.32;93229.78;5032018;28;20152;-86
2022/12/11 06:57:12;;;;;;;3.22;1.00;;;;;;;14.59;55.61;93228.41;5005432;28;20673;-86
2022/12/11 06:59:38;;;;;;;3.00;0.80;;;;;;;14.66;54.96;93215.25;5025532;28;20049;-86
2022/12/11 07:02:03;;;;;;;4.07;0.70;;;;;;;14.52;54.84;93168.78;5038179;28;20048;-87
2022/12/11 07:04:29;;;;;;;1.55;0.85;;;;;;;14.44;55.17;93162.53;5010182;28;20044;-87
2022/12/11 07:06:56;;;;;;;0.77;0.60;;;;;;;14.63;54.40;93196.50;5025317;28;20049;-86
2022/12/11 07:09:22;;;;;;;1.65;0.80;;;;;;;14.85;55.47;93243.91;5043850;28;20076;-87
2022/12/11 07:11:51;;;;;;;4.03;1.15;;;;;;;14.48;55.32;93187.41;5017259;28;20847;-86
2022/12/11 07:14:17;;;;;;;3.78;0.70;;;;;;;14.99;54.92;93257.56;4996044;28;20064;-86
2022/12/11 07:16:42;;;;;;;3.03;0.75;;;;;;;14.82;54.87;93212.56;4996347;28;20049;-85
2022/12/11 07:19:08;;;;;;;5.40;0.90;;;;;;;14.21;55.83;93122.34;5016719;28;20053;-86
2022/12/11 07:21:33;;;;;;;1.88;0.70;;;;;;;14.65;56.00;93195.00;5012182;28;20057;-86
2022/12/11 07:23:59;;;;;;;1.55;0.88;;;;;;;14.63;55.04;93180.50;5019271;28;20055;-87
2022/12/11 07:26:25;;;;;;;1.70;0.80;;;;;;;14.65;55.51;93221.69;5024984;28;20545;-87
2022/12/11 07:28:50;;;;;;;1.92;0.82;;;;;;;14.61;54.54;93185.41;5005509;28;20046;-87
2022/12/11 07:31:20;;;;;;;2.38;0.73;;;;;;;14.25;54.72;93120.53;5023933;28;20435;-87
2022/12/11 07:33:46;;;;;;;2.45;0.80;;;;;;;14.63;55.51;93193.84;4987328;28;20042;-87
2022/12/11 07:36:14;;;;;;;3.75;1.20;;;;;;;13.66;55.14;93042.59;5007297;28;20096;-86
2022/12/11 07:38:40;;;;;;;4.78;1.00;;;;;;;15.09;55.63;93271.50;5037517;28;20071;-87
2022/12/11 07:41:10;;;;;;;2.08;0.90;;;;;;;14.61;54.84;93190.72;5005373;28;20037;-86
2022/12/11 07:43:35;;;;;;;2.80;1.00;;;;;;;15.06;55.76;93273.75;5005341;28;20115;-85
2022/12/11 07:46:07;;;;;;;2.03;0.73;;;;;;;14.99;53.56;93270.91;4995398;28;20845;-86
2022/12/11 07:48:38;;;;;;;1.80;0.93;;;;;;;14.40;54.88;93177.69;5004614;28;20499;-87
2022/12/11 07:51:08;;;;;;;9.85;1.20;;;;;;;14.72;53.95;93234.44;5012522;28;20516;-87
2022/12/11 07:53:33;;;;;;;3.00;0.80;;;;;;;14.73;54.10;93229.84;5022383;28;20037;-88
2022/12/11 07:55:59;;;;;;;5.50;1.30;;;;;;;15.19;54.08;93290.41;5036233;28;20475;-86
2022/12/11 07:58:24;;;;;;;3.97;1.00;;;;;;;14.66;53.81;93225.91;5026003;28;20049;-87
2022/12/11 08:00:50;;;;;;;6.72;1.00;;;;;;;14.58;54.36;93224.19;5023047;28;20060;-86
2022/12/11 08:03:16;;;;;;;1.90;1.00;;;;;;;14.53;54.47;93202.34;5042633;28;20044;-86
2022/12/11 08:05:48;;;;;;;3.65;0.82;;;;;;;15.01;54.52;93286.59;5044735;28;20049;-85
2022/12/11 08:08:13;;;;;;;;;;;;;;;15.17;53.96;93298.03;5042422;28;20132;-86
2022/12/11 08:10:38;;;;;;;4.38;1.05;;;;;;;14.24;54.32;93163.53;5024145;28;19921;-86
2022/12/11 08:13:04;;;;;;;3.58;0.90;;;;;;;14.61;54.83;93209.41;5005046;28;20033;-85
2022/12/11 08:15:29;;;;;;;3.97;1.30;;;;;;;14.18;55.92;93124.94;5022287;28;20092;-86
2022/12/11 08:17:54;;;;;;;2.80;1.13;;;;;;;15.22;55.31;93311.09;4996560;28;20816;-86
2022/12/11 08:20:20;;;;;;;4.28;1.38;;;;;;;14.38;55.33;93193.25;5020050;28;20610;-87
2022/12/11 08:22:45;;;;;;;1.65;1.00;;;;;;;15.13;54.98;93309.72;5023458;28;20083;-87
2022/12/11 08:25:11;;;;;;;2.28;1.02;;;;;;;15.06;55.71;93299.66;5023387;28;20041;-86
2022/12/11 08:27:36;;;;;;;1.58;0.80;;;;;;;14.50;55.58;93200.38;5042026;28;20049;-87
2022/12/11 08:30:02;;;;;;;2.95;1.30;;;;;;;15.01;57.81;93278.56;5027951;28;20143;-87
2022/12/11 08:32:28;;;;;;;3.67;1.08;;;;;;;14.66;57.19;93219.81;4989152;28;20135;-87
2022/12/11 08:34:53;;;;;;;3.17;0.88;;;;;;;14.41;56.45;93213.13;5015532;28;20046;-86
2022/12/11 08:37:19;;;;;;;1.00;0.80;;;;;;;14.75;55.93;93244.41;5006813;28;20067;-87
2022/12/11 08:39:45;;;;;;;2.35;1.10;;;;;;;14.67;56.93;93227.47;5039956;28;20075;-86
2022/12/11 08:42:11;;;;;;;4.35;1.08;;;;;;;14.71;58.11;93242.78;5023317;28;20084;-86
2022/12/11 08:44:36;;;;;;;7.57;1.52;;;;;;;14.63;59.37;93239.19;5042359;28;20151;-86
2022/12/11 08:47:02;;;;;;;1.98;0.85;;;;;;;14.77;58.23;93255.53;5020888;28;20052;-87
2022/12/11 08:49:27;;;;;;;1.88;1.05;;;;;;;14.75;59.58;93284.44;5024564;28;20463;-87
2022/12/11 08:51:53;;;;;;;5.07;1.15;;;;;;;14.15;58.31;93198.38;5018907;28;20045;-87
2022/12/11 08:54:19;;;;;;;4.20;0.77;;;;;;;14.65;58.06;93252.94;5021229;28;20112;-87
2022/12/11 08:56:44;;;;;;;8.50;0.95;;;;;;;13.84;58.55;93143.16;5003417;28;21107;-87
2022/12/11 08:59:10;;;;;;;3.05;1.10;;;;;;;14.47;60.16;93239.19;4996103;28;20053;-86
2022/12/11 09:01:35;;;;;;;2.92;1.00;;;;;;;14.05;61.46;93200.75;5000626;28;20045;-86
2022/12/11 09:04:01;;;;;;;3.63;1.67;;;;;;;13.93;62.88;93176.84;5023677;28;20049;-86
2022/12/11 09:06:28;;;;;;;3.15;1.77;;;;;;;14.61;62.08;93268.88;5030206;28;20059;-86
2022/12/11 09:08:55;;;;;;;5.70;1.77;;;;;;;14.56;64.08;93266.47;5034333;28;20051;-86
2022/12/11 09:11:26;;;;;;;6.88;1.85;;;;;;;13.91;64.80;93193.94;5040031;28;20436;-85
2022/12/11 09:13:52;;;;;;;3.67;1.70;;;;;;;13.72;66.18;93166.44;5023215;28;20044;-86
2022/12/11 09:16:20;;;;;;;3.47;1.88;;;;;;;14.11;65.17;93228.72;5041244;28;20059;-86
2022/12/11 09:18:47;;;;;;;2.53;1.23;;;;;;;13.74;64.03;93174.84;5021563;28;20132;-86
2022/12/11 09:21:15;;;;;;;2.88;1.35;;;;;;;14.30;64.44;93245.59;5022317;28;20049;-86
2022/12/11 09:23:41;;;;;;;3.80;1.88;;;;;;;13.77;65.20;93156.28;5038748;28;20432;-86
2022/12/11 09:26:10;;;;;;;7.65;2.03;;;;;;;14.58;63.89;93256.22;5025379;28;20072;-86
2022/12/11 09:28:35;;;;;;;4.53;1.70;;;;;;;14.04;63.73;93148.56;5017446;28;20049;-86
2022/12/11 09:31:26;;;;;;;2.80;1.55;;;;;;;14.05;64.94;93142.88;5010131;28;20583;-86
2022/12/11 09:33:58;;;;;;;13.13;2.90;;;;;;;14.38;64.49;93195.91;5022496;28;20041;-87
2022/12/11 09:36:25;;;;;;;2.85;2.00;;;;;;;14.86;62.28;93264.13;5040367;28;20041;-87
2022/12/11 09:38:50;;;;;;;3.97;1.52;;;;;;;14.01;58.68;93120.72;5024791;28;20058;-86
2022/12/11 09:41:26;;;;;;;5.20;1.60;;;;;;;14.28;59.23;93156.38;5018597;28;20834;-86
2022/12/11 09:44:14;;;;;;;2.33;1.20;;;;;;;14.33;59.16;93156.16;5001988;28;20446;-86
2022/12/11 09:46:41;;;;;;;2.50;1.38;;;;;;;14.74;58.39;93199.41;5020349;28;20149;-86
2022/12/11 09:49:33;;;;;;;2.70;1.38;;;;;;;15.04;57.95;93249.28;4997295;28;20045;-86
2022/12/11 09:52:06;;;;;;;2.47;1.05;;;;;;;14.63;57.81;93191.94;4991320;28;20236;-86
2022/12/11 09:54:32;;;;;;;4.55;1.60;;;;;;;14.60;56.84;93195.28;5020826;28;20055;-86
2022/12/11 09:57:13;;;;;;;1.27;0.95;;;;;;;15.07;57.38;93255.81;4989686;28;20061;-86
2022/12/11 10:00:04;;;;;;;5.47;1.30;;;;;;;15.13;56.30;93264.34;5017166;28;20134;-86
2022/12/11 10:02:44;;;;;;;3.17;1.20;;;;;;;14.43;56.31;93147.63;4984599;28;20865;-87
2022/12/11 10:05:09;;;;;;;2.63;1.35;;;;;;;15.11;56.71;93262.00;5002706;28;20084;-86
2022/12/11 10:07:40;;;;;;;3.88;1.20;;;;;;;15.02;57.13;93256.09;4995794;28;20539;-87
2022/12/11 10:10:29;;;;;;;4.55;1.30;;;;;;;15.12;56.91;93255.56;5019640;28;20498;-87
2022/12/11 10:13:13;;;;;;;2.55;1.00;;;;;;;14.34;57.01;93139.03;5025850;28;20080;-86
2022/12/11 10:15:48;;;;;;;2.72;1.33;;;;;;;14.88;57.38;93215.72;5003287;28;20056;-86
2022/12/11 10:18:17;;;;;;;2.58;1.27;;;;;;;14.38;56.88;93150.56;5002531;28;20112;-87
2022/12/11 10:20:44;;;;;;;2.72;1.05;;;;;;;14.86;57.20;93216.09;5004196;28;20049;-86
2022/12/11 10:23:18;;;;;;;4.05;1.45;;;;;;;14.50;57.69;93157.69;5010508;28;20826;-86
2022/12/11 10:25:53;;;;;;;2.60;1.23;;;;;;;15.15;57.78;93244.19;5043484;28;20041;-87
2022/12/11 10:28:19;;;;;;;7.75;1.63;;;;;;;14.66;57.88;93166.44;5026450;28;20050;-86
2022/12/11 10:31:06;;;;;;;3.70;1.55;;;;;;;15.19;58.39;93241.59;4986650;28;20045;-86
2022/12/11 10:33:35;;;;;;;5.45;1.70;;;;;;;14.97;59.99;93238.44;4999778;28;20547;-85
2022/12/11 10:36:00;;;;;;;2.92;1.70;;;;;;;14.43;60.98;93206.31;5005379;28;20175;-86
2022/12/11 10:38:31;;;;;;;4.53;2.00;;;;;;;14.06;61.04;93149.00;5006423;28;20091;-87
2022/12/11 10:41:02;;;;;;;5.60;2.30;;;;;;;14.58;64.27;93250.88;5021611;28;20131;-85
2022/12/11 10:43:41;;;;;;;2.28;1.27;;;;;;;14.46;64.84;93242.19;5003800;28;20045;-85
2022/12/11 10:46:23;;;;;;;3.72;1.40;;;;;;;14.11;65.27;93216.16;4989167;28;20045;-85
2022/12/11 10:48:57;;;;;;;2.90;1.30;;;;;;;14.21;64.93;93212.97;5030009;28;20049;-86
2022/12/11 10:51:32;;;;;;;1.85;1.05;;;;;;;13.51;65.15;93092.06;5033521;28;20054;-86
2022/12/11 10:54:05;;;;;;;2.90;1.55;;;;;;;13.04;63.62;93031.50;4993171;28;20038;-85
2022/12/11 10:56:32;;;;;;;2.20;1.67;;;;;;;14.09;63.35;93159.75;4998614;28;20057;-85
2022/12/11 10:59:00;;;;;;;3.10;1.70;;;;;;;14.51;63.00;93209.91;5004846;28;20056;-85
2022/12/11 11:01:30;;;;;;;3.53;1.02;;;;;;;14.63;58.49;93202.63;4986614;28;20559;-84
2022/12/11 11:04:12;;;;;;;3.25;1.70;;;;;;;14.68;60.03;93210.34;5003181;28;20132;-85
2022/12/11 11:06:38;;;;;;;3.05;1.55;;;;;;;14.20;58.94;93118.13;5022822;28;20072;-84
2022/12/11 11:09:03;;;;;;;1.17;0.65;;;;;;;14.29;55.89;93121.38;5004154;28;20087;-85
2022/12/11 11:11:35;;;;;;;3.60;1.10;;;;;;;14.44;56.85;93127.06;5028223;28;20402;-86
2022/12/11 11:14:13;;;;;;;1.98;1.10;;;;;;;14.48;57.66;93127.94;5008306;28;20082;-86
2022/12/11 11:16:41;;;;;;;1.90;1.27;;;;;;;14.42;56.92;93113.34;5013327;28;20053;-85
2022/12/11 11:19:20;;;;;;;2.28;1.05;;;;;;;14.36;56.28;93088.78;5016579;28;20057;-85
2022/12/11 11:21:56;;;;;;;1.27;1.13;;;;;;;14.67;57.29;93120.75;5027947;28;20154;-86
2022/12/11 11:24:37;;;;;;;3.25;1.25;;;;;;;14.66;58.26;93116.53;5005017;28;20092;-86
2022/12/11 11:27:12;;;;;;;3.83;2.73;;;;;;;14.70;58.54;93113.97;4985816;28;20898;-85
2022/12/11 11:29:38;;;;;;;2.75;1.60;;;;;;;15.27;57.93;93196.00;5022268;28;20279;-85
2022/12/11 11:32:39;;;;;;;3.67;1.52;;;;;;;14.47;57.43;93059.72;5002881;28;20060;-85
2022/12/11 11:35:11;;;;;;;3.05;1.50;;;;;;;15.36;56.10;93209.91;5010563;28;20100;-86
2022/12/11 11:37:39;;;;;;;2.58;1.50;;;;;;;15.49;56.31;93199.09;5030085;28;20380;-87
2022/12/11 11:40:27;;;;;;;3.78;1.63;;;;;;;15.43;55.37;93211.97;5040280;28;20047;-85
2022/12/11 11:42:56;;;;;;;2.78;1.52;;;;;;;15.52;56.51;93209.84;4987493;28;20161;-86
2022/12/11 11:45:27;;;;;;;2.60;1.73;;;;;;;15.09;55.92;93122.78;5018516;28;20046;-85
2022/12/11 11:48:04;;;;;;;;;;;;;;;15.59;57.84;93203.91;4989483;28;20148;-86
2022/12/11 11:50:34;;;;;;;2.63;1.90;;;;;;;15.27;58.46;93131.13;5011201;28;19993;-86
2022/12/11 11:53:26;;;;;;;5.07;3.17;;;;;;;15.21;60.11;93103.94;5023898;28;20515;-85